sensor_id;sensor_type;location;lat;lon;timestamp;temperature;humidity
6256;DHT22;3161;48.794;9.784;2023-03-01T00:01:20;-0.60;99.90
6256;DHT22;3161;48.794;9.784;2023-03-01T00:03:48;-0.70;99.90
6256;DHT22;3161;48.794;9.784;2023-03-01T00:06:17;-0.70;99.90
6256;DHT22;3161;48.794;9.784;2023-03-01T00:08:45;-0.70;99.90
6256;DHT22;3161;48.794;9.784;2023-03-01T00:11:15;-0.70;99.90
6256;DHT22;3161;48.794;9.784;2023-03-01T00:13:44;-0.70;99.90
6256;DHT22;3161;48.794;9.784;2023-03-01T00:16:19;-0.80;99.90
6256;DHT22;3161;48.794;9.784;2023-03-01T00:18:43;-0.80;99.90
6256;DHT22;3161;48.794;9.784;2023-03-01T00:21:10;-0.80;99.90
6256;DHT22;3161;48.794;9.784;2023-03-01T00:23:55;-0.80;99.90
6256;DHT22;3161;48.794;9.784;2023-03-01T00:26:23;-0.80;99.90
6256;DHT22;3161;48.794;9.784;2023-03-01T00:28:52;-0.80;99.90
6256;DHT22;3161;48.794;9.784;2023-03-01T00:31:24;-0.90;99.90
6256;DHT22;3161;48.794;9.784;2023-03-01T00:33:56;-1.00;99.90
6256;DHT22;3161;48.794;9.784;2023-03-01T00:36:30;-1.00;99.90
6256;DHT22;3161;48.794;9.784;2023-03-01T00:38:58;-1.00;99.90
6256;DHT22;3161;48.794;9.784;2023-03-01T00:41:26;-1.00;99.90
6256;DHT22;3161;48.794;9.784;2023-03-01T00:43:54;-1.10;99.90
6256;DHT22;3161;48.794;9.784;2023-03-01T00:46:25;-1.00;99.90
6256;DHT22;3161;48.794;9.784;2023-03-01T00:48:53;-1.00;99.90
6256;DHT22;3161;48.794;9.784;2023-03-01T00:51:26;-1.10;99.90
6256;DHT22;3161;48.794;9.784;2023-03-01T00:53:56;-1.10;99.90
6256;DHT22;3161;48.794;9.784;2023-03-01T00:56:24;-1.00;99.90
6256;DHT22;3161;48.794;9.784;2023-03-01T00:58:52;-1.00;99.90
6256;DHT22;3161;48.794;9.784;2023-03-01T01:01:23;-1.00;99.90
6256;DHT22;3161;48.794;9.784;2023-03-01T01:04:00;-0.90;99.90
6256;DHT22;3161;48.794;9.784;2023-03-01T01:06:36;-0.80;99.90
6256;DHT22;3161;48.794;9.784;2023-03-01T01:09:06;-0.80;99.90
6256;DHT22;3161;48.794;9.784;2023-03-01T01:11:34;-0.70;99.90
6256;DHT22;3161;48.794;9.784;2023-03-01T01:14:03;-0.70;99.90
6256;DHT22;3161;48.794;9.784;2023-03-01T01:16:30;-0.60;99.90
6256;DHT22;3161;48.794;9.784;2023-03-01T01:18:58;-0.60;99.90
6256;DHT22;3161;48.794;9.784;2023-03-01T01:21:26;-0.60;99.90
6256;DHT22;3161;48.794;9.784;2023-03-01T01:23:54;-0.50;99.90
6256;DHT22;3161;48.794;9.784;2023-03-01T01:26:30;-0.40;99.90
6256;DHT22;3161;48.794;9.784;2023-03-01T01:28:58;-0.40;99.90
6256;DHT22;3161;48.794;9.784;2023-03-01T01:31:27;-0.40;99.90
6256;DHT22;3161;48.794;9.784;2023-03-01T01:33:55;-0.30;99.90
6256;DHT22;3161;48.794;9.784;2023-03-01T01:36:24;-0.30;99.90
6256;DHT22;3161;48.794;9.784;2023-03-01T01:38:51;-0.20;99.90
6256;DHT22;3161;48.794;9.784;2023-03-01T01:41:21;-0.20;99.90
6256;DHT22;3161;48.794;9.784;2023-03-01T01:44:09;-0.10;99.90
6256;DHT22;3161;48.794;9.784;2023-03-01T01:49:07;0.00;99.90
6256;DHT22;3161;48.794;9.784;2023-03-01T01:51:40;0.10;99.90
6256;DHT22;3161;48.794;9.784;2023-03-01T01:54:14;0.20;99.90
6256;DHT22;3161;48.794;9.784;2023-03-01T01:56:38;0.30;99.90
6256;DHT22;3161;48.794;9.784;2023-03-01T01:59:07;0.30;99.90
6256;DHT22;3161;48.794;9.784;2023-03-01T02:01:34;0.40;99.90
6256;DHT22;3161;48.794;9.784;2023-03-01T02:04:03;0.50;99.90
6256;DHT22;3161;48.794;9.784;2023-03-01T02:06:41;0.50;99.90
6256;DHT22;3161;48.794;9.784;2023-03-01T02:09:12;0.60;99.90
6256;DHT22;3161;48.794;9.784;2023-03-01T02:11:40;0.60;99.90
6256;DHT22;3161;48.794;9.784;2023-03-01T02:14:08;0.70;99.90
6256;DHT22;3161;48.794;9.784;2023-03-01T02:16:36;0.70;99.90
6256;DHT22;3161;48.794;9.784;2023-03-01T02:19:04;0.70;99.90
6256;DHT22;3161;48.794;9.784;2023-03-01T02:27:14;0.80;99.90
6256;DHT22;3161;48.794;9.784;2023-03-01T02:29:42;0.80;99.90
6256;DHT22;3161;48.794;9.784;2023-03-01T02:32:11;0.90;99.90
6256;DHT22;3161;48.794;9.784;2023-03-01T02:34:39;0.90;99.90
6256;DHT22;3161;48.794;9.784;2023-03-01T02:37:13;0.90;99.90
6256;DHT22;3161;48.794;9.784;2023-03-01T02:39:47;1.00;99.90
6256;DHT22;3161;48.794;9.784;2023-03-01T02:42:14;1.00;99.90
6256;DHT22;3161;48.794;9.784;2023-03-01T02:44:43;1.00;99.90
6256;DHT22;3161;48.794;9.784;2023-03-01T02:47:11;1.00;99.90
6256;DHT22;3161;48.794;9.784;2023-03-01T02:49:38;0.90;99.90
6256;DHT22;3161;48.794;9.784;2023-03-01T02:52:32;1.00;99.90
6256;DHT22;3161;48.794;9.784;2023-03-01T02:57:31;1.10;99.90
6256;DHT22;3161;48.794;9.784;2023-03-01T03:00:06;1.00;99.90
6256;DHT22;3161;48.794;9.784;2023-03-01T03:02:31;1.10;99.90
6256;DHT22;3161;48.794;9.784;2023-03-01T03:05:10;1.10;99.90
6256;DHT22;3161;48.794;9.784;2023-03-01T03:07:40;1.10;99.90
6256;DHT22;3161;48.794;9.784;2023-03-01T03:10:11;1.10;99.90
6256;DHT22;3161;48.794;9.784;2023-03-01T03:12:39;1.10;99.90
6256;DHT22;3161;48.794;9.784;2023-03-01T03:15:08;1.10;99.90
6256;DHT22;3161;48.794;9.784;2023-03-01T03:17:37;1.10;99.90
6256;DHT22;3161;48.794;9.784;2023-03-01T03:20:06;1.10;99.90
6256;DHT22;3161;48.794;9.784;2023-03-01T03:22:36;1.10;99.90
6256;DHT22;3161;48.794;9.784;2023-03-01T03:25:05;1.10;99.90
6256;DHT22;3161;48.794;9.784;2023-03-01T03:27:35;1.10;99.90
6256;DHT22;3161;48.794;9.784;2023-03-01T03:30:03;1.20;99.90
6256;DHT22;3161;48.794;9.784;2023-03-01T03:32:33;1.20;99.90
6256;DHT22;3161;48.794;9.784;2023-03-01T03:35:01;1.20;99.90
6256;DHT22;3161;48.794;9.784;2023-03-01T03:37:29;1.20;99.90
6256;DHT22;3161;48.794;9.784;2023-03-01T03:40:15;1.20;99.90
6256;DHT22;3161;48.794;9.784;2023-03-01T03:42:42;1.20;99.90
6256;DHT22;3161;48.794;9.784;2023-03-01T03:45:10;1.20;99.90
6256;DHT22;3161;48.794;9.784;2023-03-01T03:47:37;1.30;99.90
6256;DHT22;3161;48.794;9.784;2023-03-01T03:50:06;1.30;99.90
6256;DHT22;3161;48.794;9.784;2023-03-01T03:52:33;1.20;99.90
6256;DHT22;3161;48.794;9.784;2023-03-01T03:55:01;1.20;99.90
6256;DHT22;3161;48.794;9.784;2023-03-01T03:57:28;1.20;99.90
6256;DHT22;3161;48.794;9.784;2023-03-01T03:59:56;1.20;99.90
6256;DHT22;3161;48.794;9.784;2023-03-01T04:02:23;1.20;99.90
6256;DHT22;3161;48.794;9.784;2023-03-01T04:04:51;1.20;99.90
6256;DHT22;3161;48.794;9.784;2023-03-01T04:07:19;1.20;99.90
6256;DHT22;3161;48.794;9.784;2023-03-01T04:09:49;1.20;99.90
6256;DHT22;3161;48.794;9.784;2023-03-01T04:12:17;1.20;99.90
6256;DHT22;3161;48.794;9.784;2023-03-01T04:14:46;1.30;99.90
6256;DHT22;3161;48.794;9.784;2023-03-01T04:17:14;1.20;99.90
6256;DHT22;3161;48.794;9.784;2023-03-01T04:19:41;1.20;99.90
6256;DHT22;3161;48.794;9.784;2023-03-01T04:22:10;1.30;99.90
6256;DHT22;3161;48.794;9.784;2023-03-01T04:24:39;1.30;99.90
6256;DHT22;3161;48.794;9.784;2023-03-01T04:27:07;1.30;99.90
6256;DHT22;3161;48.794;9.784;2023-03-01T04:29:34;1.30;99.90
6256;DHT22;3161;48.794;9.784;2023-03-01T04:32:02;1.30;99.90
6256;DHT22;3161;48.794;9.784;2023-03-01T04:34:30;1.30;99.90
6256;DHT22;3161;48.794;9.784;2023-03-01T04:36:57;1.30;99.90
6256;DHT22;3161;48.794;9.784;2023-03-01T04:39:25;1.30;99.90
6256;DHT22;3161;48.794;9.784;2023-03-01T04:41:52;1.30;99.90
6256;DHT22;3161;48.794;9.784;2023-03-01T04:44:20;1.30;99.90
6256;DHT22;3161;48.794;9.784;2023-03-01T04:46:49;1.30;99.90
6256;DHT22;3161;48.794;9.784;2023-03-01T04:49:17;1.30;99.90
6256;DHT22;3161;48.794;9.784;2023-03-01T04:51:44;1.30;99.90
6256;DHT22;3161;48.794;9.784;2023-03-01T04:54:11;1.30;99.90
6256;DHT22;3161;48.794;9.784;2023-03-01T04:56:39;1.30;99.90
6256;DHT22;3161;48.794;9.784;2023-03-01T04:59:06;1.30;99.90
6256;DHT22;3161;48.794;9.784;2023-03-01T05:01:36;1.30;99.90
6256;DHT22;3161;48.794;9.784;2023-03-01T05:04:04;1.30;99.90
6256;DHT22;3161;48.794;9.784;2023-03-01T05:06:32;1.30;99.90
6256;DHT22;3161;48.794;9.784;2023-03-01T05:08:59;1.30;99.90
6256;DHT22;3161;48.794;9.784;2023-03-01T05:11:27;1.30;99.90
6256;DHT22;3161;48.794;9.784;2023-03-01T05:13:56;1.40;99.90
6256;DHT22;3161;48.794;9.784;2023-03-01T05:16:23;1.40;99.90
6256;DHT22;3161;48.794;9.784;2023-03-01T05:18:51;1.40;99.90
6256;DHT22;3161;48.794;9.784;2023-03-01T05:21:19;1.40;99.90
6256;DHT22;3161;48.794;9.784;2023-03-01T05:23:46;1.40;99.90
6256;DHT22;3161;48.794;9.784;2023-03-01T05:26:16;1.30;99.90
6256;DHT22;3161;48.794;9.784;2023-03-01T05:28:44;1.40;99.90
6256;DHT22;3161;48.794;9.784;2023-03-01T05:31:11;1.40;99.90
6256;DHT22;3161;48.794;9.784;2023-03-01T05:33:40;1.40;99.90
6256;DHT22;3161;48.794;9.784;2023-03-01T05:36:09;1.30;99.90
6256;DHT22;3161;48.794;9.784;2023-03-01T05:38:37;1.40;99.90
6256;DHT22;3161;48.794;9.784;2023-03-01T05:41:04;1.40;99.90
6256;DHT22;3161;48.794;9.784;2023-03-01T05:43:32;1.40;99.90
6256;DHT22;3161;48.794;9.784;2023-03-01T05:46:00;1.40;99.90
6256;DHT22;3161;48.794;9.784;2023-03-01T05:48:27;1.40;99.90
6256;DHT22;3161;48.794;9.784;2023-03-01T05:50:58;1.40;99.90
6256;DHT22;3161;48.794;9.784;2023-03-01T05:53:24;1.40;99.90
6256;DHT22;3161;48.794;9.784;2023-03-01T05:55:53;1.40;99.90
6256;DHT22;3161;48.794;9.784;2023-03-01T05:58:20;1.40;99.90
6256;DHT22;3161;48.794;9.784;2023-03-01T06:00:48;1.30;99.90
6256;DHT22;3161;48.794;9.784;2023-03-01T06:03:17;1.30;99.90
6256;DHT22;3161;48.794;9.784;2023-03-01T06:05:45;1.30;99.90
6256;DHT22;3161;48.794;9.784;2023-03-01T06:08:13;1.20;99.90
6256;DHT22;3161;48.794;9.784;2023-03-01T06:10:41;1.20;99.90
6256;DHT22;3161;48.794;9.784;2023-03-01T06:13:09;1.20;99.90
6256;DHT22;3161;48.794;9.784;2023-03-01T06:15:36;1.10;99.90
6256;DHT22;3161;48.794;9.784;2023-03-01T06:18:04;1.10;99.90
6256;DHT22;3161;48.794;9.784;2023-03-01T06:20:31;1.10;99.90
6256;DHT22;3161;48.794;9.784;2023-03-01T06:22:59;1.10;99.90
6256;DHT22;3161;48.794;9.784;2023-03-01T06:25:27;1.00;99.90
6256;DHT22;3161;48.794;9.784;2023-03-01T06:27:54;1.00;99.90
6256;DHT22;3161;48.794;9.784;2023-03-01T06:30:23;1.00;99.90
6256;DHT22;3161;48.794;9.784;2023-03-01T06:32:51;0.90;99.90
6256;DHT22;3161;48.794;9.784;2023-03-01T06:35:21;0.90;99.90
6256;DHT22;3161;48.794;9.784;2023-03-01T06:37:48;0.80;99.90
6256;DHT22;3161;48.794;9.784;2023-03-01T06:40:16;0.80;99.90
6256;DHT22;3161;48.794;9.784;2023-03-01T06:42:47;0.80;99.90
6256;DHT22;3161;48.794;9.784;2023-03-01T06:45:16;0.70;99.90
6256;DHT22;3161;48.794;9.784;2023-03-01T06:47:43;0.70;99.90
6256;DHT22;3161;48.794;9.784;2023-03-01T06:50:12;0.70;99.90
6256;DHT22;3161;48.794;9.784;2023-03-01T06:52:39;0.70;99.90
6256;DHT22;3161;48.794;9.784;2023-03-01T06:55:08;0.70;99.90
6256;DHT22;3161;48.794;9.784;2023-03-01T06:57:35;0.70;99.90
6256;DHT22;3161;48.794;9.784;2023-03-01T07:00:05;0.80;99.90
6256;DHT22;3161;48.794;9.784;2023-03-01T07:02:33;0.70;99.90
6256;DHT22;3161;48.794;9.784;2023-03-01T07:05:01;0.70;99.90
6256;DHT22;3161;48.794;9.784;2023-03-01T07:07:28;0.70;99.90
6256;DHT22;3161;48.794;9.784;2023-03-01T07:09:56;0.70;99.90
6256;DHT22;3161;48.794;9.784;2023-03-01T07:12:23;0.70;99.90
6256;DHT22;3161;48.794;9.784;2023-03-01T07:14:51;0.80;99.90
6256;DHT22;3161;48.794;9.784;2023-03-01T07:17:19;0.80;99.90
6256;DHT22;3161;48.794;9.784;2023-03-01T07:22:35;0.80;99.90
6256;DHT22;3161;48.794;9.784;2023-03-01T07:25:03;0.90;99.90
6256;DHT22;3161;48.794;9.784;2023-03-01T07:27:31;1.00;99.90
6256;DHT22;3161;48.794;9.784;2023-03-01T07:29:58;1.10;99.90
6256;DHT22;3161;48.794;9.784;2023-03-01T07:32:26;1.20;99.90
6256;DHT22;3161;48.794;9.784;2023-03-01T07:34:53;1.30;99.90
6256;DHT22;3161;48.794;9.784;2023-03-01T07:37:21;1.40;99.90
6256;DHT22;3161;48.794;9.784;2023-03-01T07:39:49;1.50;99.90
6256;DHT22;3161;48.794;9.784;2023-03-01T07:42:16;1.60;99.90
6256;DHT22;3161;48.794;9.784;2023-03-01T07:44:44;1.70;99.90
6256;DHT22;3161;48.794;9.784;2023-03-01T07:47:11;1.90;99.90
6256;DHT22;3161;48.794;9.784;2023-03-01T07:49:39;2.00;99.90
6256;DHT22;3161;48.794;9.784;2023-03-01T07:52:06;2.10;99.90
6256;DHT22;3161;48.794;9.784;2023-03-01T07:54:34;2.30;99.90
6256;DHT22;3161;48.794;9.784;2023-03-01T07:57:02;2.40;99.90
6256;DHT22;3161;48.794;9.784;2023-03-01T07:59:29;2.50;99.90
6256;DHT22;3161;48.794;9.784;2023-03-01T08:01:57;2.70;99.90
6256;DHT22;3161;48.794;9.784;2023-03-01T08:04:25;3.10;99.90
6256;DHT22;3161;48.794;9.784;2023-03-01T08:06:55;3.60;99.90
6256;DHT22;3161;48.794;9.784;2023-03-01T08:09:22;4.00;99.90
6256;DHT22;3161;48.794;9.784;2023-03-01T08:11:50;4.20;99.90
6256;DHT22;3161;48.794;9.784;2023-03-01T08:14:17;4.10;99.90
6256;DHT22;3161;48.794;9.784;2023-03-01T08:16:48;4.10;99.90
6256;DHT22;3161;48.794;9.784;2023-03-01T08:19:14;4.00;99.90
6256;DHT22;3161;48.794;9.784;2023-03-01T08:21:42;4.20;99.90
6256;DHT22;3161;48.794;9.784;2023-03-01T08:24:09;4.60;99.90
6256;DHT22;3161;48.794;9.784;2023-03-01T08:32:22;6.70;99.90
6256;DHT22;3161;48.794;9.784;2023-03-01T08:34:49;7.30;99.30
6256;DHT22;3161;48.794;9.784;2023-03-01T08:37:17;7.90;97.80
6256;DHT22;3161;48.794;9.784;2023-03-01T08:39:44;8.30;96.30
6256;DHT22;3161;48.794;9.784;2023-03-01T08:42:12;8.70;95.60
6256;DHT22;3161;48.794;9.784;2023-03-01T08:44:39;9.10;93.50
6256;DHT22;3161;48.794;9.784;2023-03-01T08:47:07;9.40;93.60
6256;DHT22;3161;48.794;9.784;2023-03-01T08:49:34;9.70;92.90
6256;DHT22;3161;48.794;9.784;2023-03-01T08:52:02;10.10;91.70
6256;DHT22;3161;48.794;9.784;2023-03-01T08:54:30;10.20;90.10
6256;DHT22;3161;48.794;9.784;2023-03-01T08:56:57;10.30;87.60
6256;DHT22;3161;48.794;9.784;2023-03-01T09:02:16;10.60;86.00
6256;DHT22;3161;48.794;9.784;2023-03-01T09:04:44;10.70;84.10
6256;DHT22;3161;48.794;9.784;2023-03-01T09:07:12;10.80;82.40
6256;DHT22;3161;48.794;9.784;2023-03-01T09:09:39;10.90;82.10
6256;DHT22;3161;48.794;9.784;2023-03-01T09:12:07;11.00;83.60
6256;DHT22;3161;48.794;9.784;2023-03-01T09:14:34;11.10;80.40
6256;DHT22;3161;48.794;9.784;2023-03-01T09:17:04;11.10;78.80
6256;DHT22;3161;48.794;9.784;2023-03-01T09:19:31;11.20;80.80
6256;DHT22;3161;48.794;9.784;2023-03-01T09:21:59;11.20;78.40
6256;DHT22;3161;48.794;9.784;2023-03-01T09:24:26;11.10;79.60
6256;DHT22;3161;48.794;9.784;2023-03-01T09:26:55;11.20;80.20
6256;DHT22;3161;48.794;9.784;2023-03-01T09:29:23;11.30;78.40
6256;DHT22;3161;48.794;9.784;2023-03-01T09:31:53;11.30;81.20
6256;DHT22;3161;48.794;9.784;2023-03-01T09:34:22;11.30;79.50
6256;DHT22;3161;48.794;9.784;2023-03-01T09:36:50;11.20;78.70
6256;DHT22;3161;48.794;9.784;2023-03-01T09:39:18;11.20;78.30
6256;DHT22;3161;48.794;9.784;2023-03-01T09:42:04;11.30;79.50
6256;DHT22;3161;48.794;9.784;2023-03-01T09:44:43;11.30;78.60
6256;DHT22;3161;48.794;9.784;2023-03-01T09:47:20;11.30;74.40
6256;DHT22;3161;48.794;9.784;2023-03-01T09:52:46;11.10;73.20
6256;DHT22;3161;48.794;9.784;2023-03-01T09:55:28;11.00;73.80
6256;DHT22;3161;48.794;9.784;2023-03-01T09:58:04;10.90;75.60
6256;DHT22;3161;48.794;9.784;2023-03-01T10:00:36;11.00;75.50
6256;DHT22;3161;48.794;9.784;2023-03-01T10:03:23;11.10;75.60
6256;DHT22;3161;48.794;9.784;2023-03-01T10:06:02;11.20;73.80
6256;DHT22;3161;48.794;9.784;2023-03-01T10:08:48;11.30;73.30
6256;DHT22;3161;48.794;9.784;2023-03-01T10:19:46;11.70;75.80
6256;DHT22;3161;48.794;9.784;2023-03-01T10:24:44;12.20;72.60
6256;DHT22;3161;48.794;9.784;2023-03-01T10:27:20;12.20;68.90
6256;DHT22;3161;48.794;9.784;2023-03-01T10:29:49;12.40;71.70
6256;DHT22;3161;48.794;9.784;2023-03-01T10:32:18;12.60;70.20
6256;DHT22;3161;48.794;9.784;2023-03-01T10:34:48;12.70;71.40
6256;DHT22;3161;48.794;9.784;2023-03-01T10:37:21;12.80;71.30
6256;DHT22;3161;48.794;9.784;2023-03-01T10:40:03;12.80;71.00
6256;DHT22;3161;48.794;9.784;2023-03-01T10:42:48;12.90;70.20
6256;DHT22;3161;48.794;9.784;2023-03-01T10:45:37;13.10;68.20
6256;DHT22;3161;48.794;9.784;2023-03-01T10:48:17;13.20;68.60
6256;DHT22;3161;48.794;9.784;2023-03-01T10:50:48;13.10;67.60
6256;DHT22;3161;48.794;9.784;2023-03-01T10:53:21;13.10;64.90
6256;DHT22;3161;48.794;9.784;2023-03-01T10:56:00;12.80;65.90
6256;DHT22;3161;48.794;9.784;2023-03-01T10:58:24;12.70;64.70
6256;DHT22;3161;48.794;9.784;2023-03-01T11:00:55;12.80;68.80
6256;DHT22;3161;48.794;9.784;2023-03-01T11:03:27;12.80;69.10
6256;DHT22;3161;48.794;9.784;2023-03-01T11:08:51;12.90;68.20
6256;DHT22;3161;48.794;9.784;2023-03-01T11:11:29;13.10;69.70
6256;DHT22;3161;48.794;9.784;2023-03-01T11:13:58;13.20;66.60
6256;DHT22;3161;48.794;9.784;2023-03-01T11:16:41;13.30;67.40
6256;DHT22;3161;48.794;9.784;2023-03-01T11:24:15;13.40;66.30
6256;DHT22;3161;48.794;9.784;2023-03-01T11:26:46;13.30;66.20
6256;DHT22;3161;48.794;9.784;2023-03-01T11:29:21;13.30;66.70
6256;DHT22;3161;48.794;9.784;2023-03-01T11:31:47;13.20;66.70
6256;DHT22;3161;48.794;9.784;2023-03-01T11:34:22;13.20;66.20
6256;DHT22;3161;48.794;9.784;2023-03-01T11:36:58;13.20;65.50
6256;DHT22;3161;48.794;9.784;2023-03-01T11:39:28;13.20;66.10
6256;DHT22;3161;48.794;9.784;2023-03-01T11:42:10;13.20;65.60
6256;DHT22;3161;48.794;9.784;2023-03-01T11:44:37;13.20;65.20
6256;DHT22;3161;48.794;9.784;2023-03-01T11:58:25;13.50;66.70
6256;DHT22;3161;48.794;9.784;2023-03-01T12:07:12;13.70;66.20
6256;DHT22;3161;48.794;9.784;2023-03-01T12:29:01;15.40;59.80
6256;DHT22;3161;48.794;9.784;2023-03-01T12:31:43;16.00;59.00
6256;DHT22;3161;48.794;9.784;2023-03-01T12:37:31;16.80;56.70
6256;DHT22;3161;48.794;9.784;2023-03-01T12:40:03;17.10;56.00
6256;DHT22;3161;48.794;9.784;2023-03-01T12:48:19;17.10;53.00
6256;DHT22;3161;48.794;9.784;2023-03-01T12:50:51;17.00;53.30
6256;DHT22;3161;48.794;9.784;2023-03-01T12:53:22;17.10;53.70
6256;DHT22;3161;48.794;9.784;2023-03-01T12:55:50;17.30;55.10
6256;DHT22;3161;48.794;9.784;2023-03-01T13:01:08;17.60;51.00
6256;DHT22;3161;48.794;9.784;2023-03-01T13:06:35;18.00;51.30
6256;DHT22;3161;48.794;9.784;2023-03-01T13:09:11;18.40;51.30
6256;DHT22;3161;48.794;9.784;2023-03-01T13:11:34;18.60;49.60
6256;DHT22;3161;48.794;9.784;2023-03-01T13:16:55;18.50;48.60
6256;DHT22;3161;48.794;9.784;2023-03-01T13:19:24;18.80;50.50
6256;DHT22;3161;48.794;9.784;2023-03-01T13:21:54;19.20;47.70
6256;DHT22;3161;48.794;9.784;2023-03-01T13:24:29;19.60;47.30
6256;DHT22;3161;48.794;9.784;2023-03-01T13:29:52;20.60;45.20
6256;DHT22;3161;48.794;9.784;2023-03-01T13:32:28;21.20;43.20
6256;DHT22;3161;48.794;9.784;2023-03-01T13:37:43;22.30;41.80
6256;DHT22;3161;48.794;9.784;2023-03-01T13:42:50;23.80;38.80
6256;DHT22;3161;48.794;9.784;2023-03-01T13:48:15;23.50;36.70
6256;DHT22;3161;48.794;9.784;2023-03-01T13:50:48;23.30;37.00
6256;DHT22;3161;48.794;9.784;2023-03-01T13:53:18;23.20;36.80
6256;DHT22;3161;48.794;9.784;2023-03-01T13:55:51;23.50;36.00
6256;DHT22;3161;48.794;9.784;2023-03-01T13:58:27;23.50;34.90
6256;DHT22;3161;48.794;9.784;2023-03-01T14:01:06;23.30;35.80
6256;DHT22;3161;48.794;9.784;2023-03-01T14:03:40;22.10;36.70
6256;DHT22;3161;48.794;9.784;2023-03-01T14:06:13;20.50;38.60
6256;DHT22;3161;48.794;9.784;2023-03-01T14:08:42;19.10;39.60
6256;DHT22;3161;48.794;9.784;2023-03-01T14:11:21;17.40;42.00
6256;DHT22;3161;48.794;9.784;2023-03-01T14:17:04;15.20;45.00
6256;DHT22;3161;48.794;9.784;2023-03-01T14:19:31;14.30;47.30
6256;DHT22;3161;48.794;9.784;2023-03-01T14:22:23;13.50;48.90
6256;DHT22;3161;48.794;9.784;2023-03-01T14:27:26;12.80;51.50
6256;DHT22;3161;48.794;9.784;2023-03-01T14:30:04;12.70;51.80
6256;DHT22;3161;48.794;9.784;2023-03-01T14:32:32;12.60;51.60
6256;DHT22;3161;48.794;9.784;2023-03-01T14:35:00;13.00;52.10
6256;DHT22;3161;48.794;9.784;2023-03-01T14:37:30;13.80;50.70
6256;DHT22;3161;48.794;9.784;2023-03-01T14:40:00;15.10;48.20
6256;DHT22;3161;48.794;9.784;2023-03-01T14:42:37;16.80;45.60
6256;DHT22;3161;48.794;9.784;2023-03-01T14:45:06;18.40;42.90
6256;DHT22;3161;48.794;9.784;2023-03-01T14:47:36;20.10;41.30
6256;DHT22;3161;48.794;9.784;2023-03-01T14:50:15;21.70;39.70
6256;DHT22;3161;48.794;9.784;2023-03-01T14:52:38;22.70;37.40
6256;DHT22;3161;48.794;9.784;2023-03-01T14:55:25;22.80;36.80
6256;DHT22;3161;48.794;9.784;2023-03-01T14:57:50;23.20;36.30
6256;DHT22;3161;48.794;9.784;2023-03-01T15:00:26;23.50;35.70
6256;DHT22;3161;48.794;9.784;2023-03-01T15:02:56;23.90;35.00
6256;DHT22;3161;48.794;9.784;2023-03-01T15:05:28;24.20;34.30
6256;DHT22;3161;48.794;9.784;2023-03-01T15:07:54;24.50;34.30
6256;DHT22;3161;48.794;9.784;2023-03-01T15:10:25;24.10;33.30
6256;DHT22;3161;48.794;9.784;2023-03-01T15:12:53;23.90;33.40
6256;DHT22;3161;48.794;9.784;2023-03-01T15:17:58;23.80;32.90
6256;DHT22;3161;48.794;9.784;2023-03-01T15:20:28;23.70;33.30
6256;DHT22;3161;48.794;9.784;2023-03-01T15:22:57;22.90;33.30
6256;DHT22;3161;48.794;9.784;2023-03-01T15:25:27;22.30;34.10
6256;DHT22;3161;48.794;9.784;2023-03-01T15:27:57;22.10;34.80
6256;DHT22;3161;48.794;9.784;2023-03-01T15:30:33;21.90;35.10
6256;DHT22;3161;48.794;9.784;2023-03-01T15:33:27;22.00;34.70
6256;DHT22;3161;48.794;9.784;2023-03-01T15:35:50;22.20;34.90
6256;DHT22;3161;48.794;9.784;2023-03-01T15:41:04;22.20;33.90
6256;DHT22;3161;48.794;9.784;2023-03-01T15:43:45;22.00;34.40
6256;DHT22;3161;48.794;9.784;2023-03-01T15:46:28;21.80;34.60
6256;DHT22;3161;48.794;9.784;2023-03-01T15:49:01;20.90;36.00
6256;DHT22;3161;48.794;9.784;2023-03-01T15:51:34;19.40;36.80
6256;DHT22;3161;48.794;9.784;2023-03-01T15:54:18;17.80;38.60
6256;DHT22;3161;48.794;9.784;2023-03-01T15:56:33;16.50;40.90
6256;DHT22;3161;48.794;9.784;2023-03-01T15:59:02;15.40;42.90
6256;DHT22;3161;48.794;9.784;2023-03-01T16:01:31;14.50;44.10
6256;DHT22;3161;48.794;9.784;2023-03-01T16:04:00;13.80;45.80
6256;DHT22;3161;48.794;9.784;2023-03-01T16:06:28;13.20;47.20
6256;DHT22;3161;48.794;9.784;2023-03-01T16:08:55;12.70;47.80
6256;DHT22;3161;48.794;9.784;2023-03-01T16:11:23;12.20;49.40
6256;DHT22;3161;48.794;9.784;2023-03-01T16:13:51;11.90;50.60
6256;DHT22;3161;48.794;9.784;2023-03-01T16:16:18;11.60;51.70
6256;DHT22;3161;48.794;9.784;2023-03-01T16:18:46;11.20;51.40
6256;DHT22;3161;48.794;9.784;2023-03-01T16:21:24;10.90;52.20
6256;DHT22;3161;48.794;9.784;2023-03-01T16:23:48;10.60;52.80
6256;DHT22;3161;48.794;9.784;2023-03-01T16:26:15;10.30;53.60
6256;DHT22;3161;48.794;9.784;2023-03-01T16:28:43;10.10;54.30
6256;DHT22;3161;48.794;9.784;2023-03-01T16:31:11;9.90;56.10
6256;DHT22;3161;48.794;9.784;2023-03-01T16:33:40;9.70;56.10
6256;DHT22;3161;48.794;9.784;2023-03-01T16:36:09;9.50;56.50
6256;DHT22;3161;48.794;9.784;2023-03-01T16:38:38;9.40;56.90
6256;DHT22;3161;48.794;9.784;2023-03-01T16:41:05;9.20;57.40
6256;DHT22;3161;48.794;9.784;2023-03-01T16:43:34;9.10;57.80
6256;DHT22;3161;48.794;9.784;2023-03-01T16:46:15;9.00;58.40
6256;DHT22;3161;48.794;9.784;2023-03-01T16:48:38;8.80;58.50
6256;DHT22;3161;48.794;9.784;2023-03-01T16:51:07;8.70;59.10
6256;DHT22;3161;48.794;9.784;2023-03-01T16:53:35;8.60;59.20
6256;DHT22;3161;48.794;9.784;2023-03-01T16:56:06;8.50;59.20
6256;DHT22;3161;48.794;9.784;2023-03-01T16:58:35;8.40;60.30
6256;DHT22;3161;48.794;9.784;2023-03-01T17:01:11;8.40;60.60
6256;DHT22;3161;48.794;9.784;2023-03-01T17:03:39;8.30;60.30
6256;DHT22;3161;48.794;9.784;2023-03-01T17:06:12;8.20;61.00
6256;DHT22;3161;48.794;9.784;2023-03-01T17:08:41;8.20;62.30
6256;DHT22;3161;48.794;9.784;2023-03-01T17:11:12;8.10;62.90
6256;DHT22;3161;48.794;9.784;2023-03-01T17:13:40;8.00;62.30
6256;DHT22;3161;48.794;9.784;2023-03-01T17:16:11;7.90;62.70
6256;DHT22;3161;48.794;9.784;2023-03-01T17:18:39;7.90;62.80
6256;DHT22;3161;48.794;9.784;2023-03-01T17:21:07;7.80;63.60
6256;DHT22;3161;48.794;9.784;2023-03-01T17:23:37;7.80;64.00
6256;DHT22;3161;48.794;9.784;2023-03-01T17:26:05;7.70;64.60
6256;DHT22;3161;48.794;9.784;2023-03-01T17:28:34;7.60;64.60
6256;DHT22;3161;48.794;9.784;2023-03-01T17:31:04;7.60;65.00
6256;DHT22;3161;48.794;9.784;2023-03-01T17:33:32;7.50;65.20
6256;DHT22;3161;48.794;9.784;2023-03-01T17:35:59;7.40;65.80
6256;DHT22;3161;48.794;9.784;2023-03-01T17:38:27;7.30;66.10
6256;DHT22;3161;48.794;9.784;2023-03-01T17:40:59;7.20;66.40
6256;DHT22;3161;48.794;9.784;2023-03-01T17:43:27;7.10;66.40
6256;DHT22;3161;48.794;9.784;2023-03-01T17:45:56;7.10;67.40
6256;DHT22;3161;48.794;9.784;2023-03-01T17:48:23;7.00;68.90
6256;DHT22;3161;48.794;9.784;2023-03-01T17:50:51;6.90;69.10
6256;DHT22;3161;48.794;9.784;2023-03-01T17:53:19;6.90;69.30
6256;DHT22;3161;48.794;9.784;2023-03-01T17:55:47;6.80;70.70
6256;DHT22;3161;48.794;9.784;2023-03-01T17:58:19;6.70;70.50
6256;DHT22;3161;48.794;9.784;2023-03-01T18:00:49;6.60;70.80
6256;DHT22;3161;48.794;9.784;2023-03-01T18:03:17;6.50;71.90
6256;DHT22;3161;48.794;9.784;2023-03-01T18:05:47;6.40;72.30
6256;DHT22;3161;48.794;9.784;2023-03-01T18:08:15;6.30;73.10
6256;DHT22;3161;48.794;9.784;2023-03-01T18:10:43;6.20;72.80
6256;DHT22;3161;48.794;9.784;2023-03-01T18:13:11;6.10;74.20
6256;DHT22;3161;48.794;9.784;2023-03-01T18:15:40;5.90;74.90
6256;DHT22;3161;48.794;9.784;2023-03-01T18:18:07;5.80;75.10
6256;DHT22;3161;48.794;9.784;2023-03-01T18:20:35;5.70;75.50
6256;DHT22;3161;48.794;9.784;2023-03-01T18:23:02;5.60;76.40
6256;DHT22;3161;48.794;9.784;2023-03-01T18:25:30;5.60;76.70
6256;DHT22;3161;48.794;9.784;2023-03-01T18:27:57;5.40;78.70